Metar z pełnej godziny Komunikat METAR ze strony awiacja.imgw.pl Metar G00 EPKK METAR EPKK 271500Z 12003KT 080V140 9999 BKN048 04/M01 Q0996 =